Time;durP1;ratioP1;P1;durP2;ratioP2;P2;SDS_P1;SDS_P2;PMS_P1;PMS_P2;Temp;Humidity;BMP_temperature;BMP_pressure;BME280_temperature;BME280_humidity;BME280_pressure;Samples;Min_cycle;Max_cycle;Signal;HPM_P1;HPM_P2
2020/12/19 00:00:10;;;;;;;80.17;27.20;;;2.80;99.90;;;;;;4149542;28;20674;-41
2020/12/19 00:02:11;;;;;;;84.13;27.70;;;2.80;99.90;;;;;;4157238;28;20271;-41
2020/12/19 00:04:13;;;;;;;80.37;26.07;;;2.80;99.90;;;;;;4145281;28;20700;-47
2020/12/19 00:06:14;;;;;;;71.37;25.57;;;2.80;99.90;;;;;;4147187;28;20287;-40
2020/12/19 00:08:15;;;;;;;81.13;27.33;;;2.80;99.90;;;;;;4155895;28;20275;-42
2020/12/19 00:10:18;;;;;;;79.83;27.93;;;2.80;99.90;;;;;;4141411;28;20397;-49
2020/12/19 00:12:23;;;;;;;71.73;26.43;;;2.80;99.90;;;;;;4142755;28;20279;-44
2020/12/19 00:14:24;;;;;;;75.87;27.63;;;2.80;99.90;;;;;;4141467;28;20275;-44
2020/12/19 00:16:29;;;;;;;73.80;25.47;;;2.80;99.90;;;;;;4143142;28;20349;-41
2020/12/19 00:18:30;;;;;;;81.23;26.43;;;2.80;99.90;;;;;;4145839;28;20295;-50
2020/12/19 00:20:31;;;;;;;84.53;28.70;;;2.80;99.90;;;;;;4157890;28;20329;-43
2020/12/19 00:22:32;;;;;;;67.20;26.17;;;2.80;99.90;;;;;;4141750;28;21086;-53
2020/12/19 00:24:33;;;;;;;80.80;27.53;;;2.90;99.90;;;;;;4159606;28;20393;-40
2020/12/19 00:26:39;;;;;;;75.43;27.60;;;2.90;99.90;;;;;;4158180;28;20263;-55
2020/12/19 00:28:41;;;;;;;72.20;26.13;;;2.90;99.90;;;;;;4157182;28;20325;-43
2020/12/19 00:30:42;;;;;;;81.20;29.27;;;2.90;99.90;;;;;;4157190;28;20298;-53
2020/12/19 00:32:43;;;;;;;73.50;26.63;;;2.90;99.90;;;;;;4155831;28;20671;-41
2020/12/19 00:34:44;;;;;;;71.17;26.10;;;2.90;99.90;;;;;;4141455;28;20264;-42
2020/12/19 00:36:45;;;;;;;85.43;26.63;;;2.90;99.90;;;;;;4142044;28;20259;-57
2020/12/19 00:38:46;;;;;;;73.77;25.73;;;2.80;99.90;;;;;;4148986;28;20321;-50
2020/12/19 00:40:47;;;;;;;74.93;26.10;;;2.80;99.90;;;;;;4143193;28;20770;-42
2020/12/19 00:42:49;;;;;;;83.60;27.93;;;2.80;99.90;;;;;;4142615;28;20341;-47
2020/12/19 00:44:50;;;;;;;81.73;27.93;;;2.80;99.90;;;;;;4141532;28;20337;-45
2020/12/19 00:46:52;;;;;;;76.03;26.20;;;2.80;99.90;;;;;;4141774;28;20829;-41
2020/12/19 00:48:54;;;;;;;81.10;27.57;;;2.80;99.90;;;;;;4141476;28;20317;-53
2020/12/19 00:50:55;;;;;;;78.73;26.60;;;2.80;99.90;;;;;;4142269;28;20676;-55
2020/12/19 00:52:56;;;;;;;84.57;28.83;;;2.80;99.90;;;;;;4140591;28;20350;-45
2020/12/19 00:54:57;;;;;;;80.47;28.20;;;2.80;99.90;;;;;;4142765;28;20275;-46
2020/12/19 00:56:58;;;;;;;83.17;27.57;;;2.90;99.90;;;;;;4140347;28;20329;-47
2020/12/19 00:58:59;;;;;;;88.57;27.83;;;2.90;99.90;;;;;;4144880;28;20712;-51
2020/12/19 01:01:00;;;;;;;76.17;29.00;;;2.90;99.90;;;;;;4142174;28;20283;-49
2020/12/19 01:03:01;;;;;;;87.80;29.47;;;2.90;99.90;;;;;;4156728;28;20321;-41
2020/12/19 01:05:05;;;;;;;84.17;30.77;;;2.80;99.90;;;;;;4157165;28;20759;-52
2020/12/19 01:07:10;;;;;;;90.17;27.57;;;2.80;99.90;;;;;;4157261;28;20670;-47
2020/12/19 01:09:13;;;;;;;84.80;28.27;;;2.90;99.90;;;;;;4155652;28;20333;-47
2020/12/19 01:11:18;;;;;;;80.77;27.90;;;2.90;99.90;;;;;;4141866;28;20294;-49
2020/12/19 01:13:19;;;;;;;86.97;27.43;;;2.90;99.90;;;;;;4140594;28;20275;-43
2020/12/19 01:15:20;;;;;;;79.03;29.10;;;2.90;99.90;;;;;;4140236;28;20282;-45
2020/12/19 01:17:21;;;;;;;75.93;28.30;;;2.90;99.90;;;;;;4148060;28;20286;-41
2020/12/19 01:19:22;;;;;;;87.73;28.33;;;2.90;99.90;;;;;;4157385;28;20271;-41
2020/12/19 01:21:27;;;;;;;92.23;29.97;;;2.90;99.90;;;;;;4158411;28;20681;-46
2020/12/19 01:23:28;;;;;;;85.27;29.20;;;2.90;99.90;;;;;;4150629;28;20325;-42
2020/12/19 01:25:29;;;;;;;87.93;28.47;;;2.90;99.90;;;;;;4158806;28;20271;-42
2020/12/19 01:27:30;;;;;;;86.97;30.43;;;2.90;99.90;;;;;;4156955;28;20270;-44
2020/12/19 01:29:31;;;;;;;96.50;30.13;;;2.90;99.90;;;;;;4146173;28;20322;-48
2020/12/19 01:31:32;;;;;;;84.77;28.33;;;2.90;99.90;;;;;;4155926;28;20880;-43
2020/12/19 01:33:35;;;;;;;97.37;30.67;;;2.80;99.90;;;;;;4158253;28;20274;-41
2020/12/19 01:35:36;;;;;;;93.57;31.37;;;2.90;99.90;;;;;;4156449;28;20263;-41
2020/12/19 01:37:37;;;;;;;98.27;30.27;;;2.90;99.90;;;;;;4142368;28;20674;-42
2020/12/19 01:39:38;;;;;;;91.50;29.83;;;2.90;99.90;;;;;;4140343;28;20275;-44
2020/12/19 01:41:39;;;;;;;95.70;30.13;;;2.90;99.90;;;;;;4140753;28;20402;-59
2020/12/19 01:43:50;;;;;;;100.80;31.57;;;2.90;99.90;;;;;;4140505;28;20783;-59
2020/12/19 01:45:51;;;;;;;;;;;2.90;99.90;;;;;;4141005;28;20267;-43
2020/12/19 01:47:54;;;;;;;;;;;2.80;99.90;;;;;;4141606;28;20357;-45
2020/12/19 01:49:56;;;;;;;105.73;29.33;;;2.80;99.90;;;;;;4157381;28;19913;-43
2020/12/19 01:52:00;;;;;;;111.80;32.03;;;2.90;99.90;;;;;;4157443;28;20294;-48
2020/12/19 01:54:01;;;;;;;110.57;33.13;;;2.80;99.90;;;;;;4156870;28;20270;-44
2020/12/19 01:56:02;;;;;;;120.97;32.53;;;2.80;99.90;;;;;;4146768;28;20330;-52
2020/12/19 01:58:04;;;;;;;114.27;31.83;;;2.80;99.90;;;;;;4123119;28;20314;-41
2020/12/19 02:00:05;;;;;;;105.87;31.57;;;2.80;99.90;;;;;;4141902;28;20361;-44
2020/12/19 02:02:07;;;;;;;111.23;31.27;;;2.90;99.90;;;;;;4140517;28;20275;-41
2020/12/19 02:04:09;;;;;;;127.23;35.23;;;2.80;99.90;;;;;;4140788;28;20283;-49
2020/12/19 02:06:14;;;;;;;119.27;36.67;;;2.90;99.90;;;;;;4140249;28;20636;-43
2020/12/19 02:08:15;;;;;;;125.87;33.63;;;2.80;99.90;;;;;;4141514;28;20290;-47
2020/12/19 02:10:16;;;;;;;125.47;33.40;;;2.80;99.90;;;;;;4139238;28;20353;-47
2020/12/19 02:12:18;;;;;;;125.20;34.90;;;2.80;99.90;;;;;;4140755;28;20291;-46
2020/12/19 02:14:19;;;;;;;136.07;35.33;;;2.80;99.90;;;;;;4139836;28;20274;-44
2020/12/19 02:16:20;;;;;;;122.37;34.37;;;2.80;99.90;;;;;;4123549;28;20854;-53
2020/12/19 02:18:21;;;;;;;136.83;35.83;;;2.80;99.90;;;;;;4140423;28;20845;-45
2020/12/19 02:20:23;;;;;;;122.47;33.60;;;2.80;99.90;;;;;;4141025;28;20287;-42
2020/12/19 02:22:24;;;;;;;118.07;35.37;;;2.80;99.90;;;;;;4157315;28;20274;-45
2020/12/19 02:24:25;;;;;;;130.03;34.40;;;2.80;99.90;;;;;;4144837;28;20855;-50
2020/12/19 02:26:26;;;;;;;124.40;34.03;;;2.80;99.90;;;;;;4142726;28;20330;-47
2020/12/19 02:28:27;;;;;;;126.40;34.67;;;2.80;99.90;;;;;;4155475;28;20991;-45
2020/12/19 02:30:29;;;;;;;133.53;35.67;;;2.80;99.90;;;;;;4149529;28;20279;-41
2020/12/19 02:32:30;;;;;;;128.80;35.23;;;2.80;99.90;;;;;;4139662;28;20341;-50
2020/12/19 02:34:31;;;;;;;136.27;36.50;;;2.80;99.90;;;;;;4143849;28;20845;-43
2020/12/19 02:36:32;;;;;;;138.40;34.60;;;2.80;99.90;;;;;;4140326;28;20267;-45
2020/12/19 02:38:35;;;;;;;152.33;38.93;;;2.80;99.90;;;;;;4140337;28;20305;-42
2020/12/19 02:40:36;;;;;;;129.83;36.90;;;2.80;99.90;;;;;;4144592;28;20911;-41
2020/12/19 02:42:38;;;;;;;133.80;35.63;;;2.80;99.90;;;;;;4157640;28;20282;-43
2020/12/19 02:44:39;;;;;;;129.17;36.30;;;2.80;99.90;;;;;;4155363;28;20341;-50
2020/12/19 02:46:40;;;;;;;132.60;34.77;;;2.80;99.90;;;;;;4154516;28;20294;-44
2020/12/19 02:48:41;;;;;;;119.83;34.47;;;2.80;99.90;;;;;;4156324;28;20266;-58
2020/12/19 02:50:43;;;;;;;130.23;35.47;;;2.80;99.90;;;;;;4156529;28;20681;-56
2020/12/19 02:52:44;;;;;;;133.07;37.30;;;2.80;99.90;;;;;;4156712;28;20283;-42
2020/12/19 02:54:45;;;;;;;132.63;35.30;;;2.80;99.90;;;;;;4156478;28;20313;-41
2020/12/19 02:56:46;;;;;;;131.50;36.23;;;2.80;99.90;;;;;;4156962;28;20592;-42
2020/12/19 02:58:47;;;;;;;132.93;36.03;;;2.80;99.90;;;;;;4145715;28;20326;-44
2020/12/19 03:00:48;;;;;;;124.80;34.40;;;2.80;99.90;;;;;;4154296;28;20275;-44
2020/12/19 03:02:49;;;;;;;127.53;36.17;;;2.80;99.90;;;;;;4155867;28;20267;-47
2020/12/19 03:04:50;;;;;;;135.47;36.30;;;2.80;99.90;;;;;;4157684;28;20267;-44
2020/12/19 03:06:51;;;;;;;125.60;35.30;;;2.80;99.90;;;;;;4138750;28;20272;-43
2020/12/19 03:08:53;;;;;;;119.97;35.17;;;2.90;99.90;;;;;;4156484;28;21160;-42
2020/12/19 03:10:54;;;;;;;122.80;35.63;;;2.90;99.90;;;;;;4155291;28;20356;-45
2020/12/19 03:12:55;;;;;;;122.90;34.97;;;2.90;99.90;;;;;;4156628;28;20333;-60
2020/12/19 03:14:56;;;;;;;115.57;34.00;;;2.80;99.90;;;;;;4154466;28;20313;-47
2020/12/19 03:16:57;;;;;;;123.23;37.37;;;2.90;99.90;;;;;;4140786;28;20298;-54
2020/12/19 03:18:58;;;;;;;122.00;34.43;;;2.80;99.90;;;;;;4139544;28;20283;-41
2020/12/19 03:21:00;;;;;;;128.47;36.50;;;2.80;99.90;;;;;;4144217;28;20286;-49
2020/12/19 03:23:01;;;;;;;119.93;36.90;;;2.80;99.90;;;;;;4156495;28;20255;-51
2020/12/19 03:25:02;;;;;;;129.87;34.43;;;2.80;99.90;;;;;;4156394;28;20325;-42
2020/12/19 03:27:03;;;;;;;127.27;34.73;;;2.80;99.90;;;;;;4157018;28;20263;-40
2020/12/19 03:29:04;;;;;;;130.40;35.57;;;2.80;99.90;;;;;;4153049;28;20294;-45
2020/12/19 03:31:06;;;;;;;121.97;33.93;;;2.80;99.90;;;;;;4154490;28;20307;-41
2020/12/19 03:33:08;;;;;;;123.00;37.50;;;2.80;99.90;;;;;;4153479;28;20671;-42
2020/12/19 03:35:09;;;;;;;120.60;35.63;;;2.80;99.90;;;;;;4141472;28;20783;-44
2020/12/19 03:37:11;;;;;;;117.13;32.73;;;2.80;99.90;;;;;;4140928;28;20313;-43
2020/12/19 03:39:12;;;;;;;121.07;36.97;;;2.80;99.90;;;;;;4153257;28;20348;-46
2020/12/19 03:41:13;;;;;;;121.37;36.43;;;2.80;99.90;;;;;;4158667;28;20758;-44
2020/12/19 03:43:14;;;;;;;120.23;34.47;;;2.80;99.90;;;;;;4160131;28;20743;-42
2020/12/19 03:45:15;;;;;;;127.57;34.87;;;2.80;99.90;;;;;;4158524;28;20397;-45
2020/12/19 03:47:16;;;;;;;125.03;33.43;;;2.80;99.90;;;;;;4159223;28;20701;-49
2020/12/19 03:49:17;;;;;;;124.53;33.00;;;2.80;99.90;;;;;;4158320;28;20290;-46
2020/12/19 03:51:18;;;;;;;113.40;33.40;;;2.80;99.90;;;;;;4159043;28;20295;-44
2020/12/19 03:53:20;;;;;;;114.60;35.07;;;2.80;99.90;;;;;;4153929;28;20275;-42
2020/12/19 03:55:21;;;;;;;135.23;36.03;;;2.80;99.90;;;;;;4142257;28;20314;-42
2020/12/19 03:57:22;;;;;;;129.10;36.50;;;2.80;99.90;;;;;;4142617;28;20711;-46
2020/12/19 03:59:23;;;;;;;121.20;36.07;;;2.80;99.90;;;;;;4148864;28;20677;-41
2020/12/19 04:01:24;;;;;;;116.60;35.33;;;2.80;99.90;;;;;;4159160;28;20816;-50
2020/12/19 04:03:25;;;;;;;123.57;35.53;;;2.80;99.90;;;;;;4157928;28;20267;-41
2020/12/19 04:05:26;;;;;;;115.70;33.53;;;2.80;99.90;;;;;;4159669;28;20794;-51
2020/12/19 04:07:27;;;;;;;129.07;34.70;;;2.80;99.90;;;;;;4157801;28;20275;-43
2020/12/19 04:09:28;;;;;;;110.17;32.47;;;2.80;99.90;;;;;;4158881;28;20336;-58
2020/12/19 04:11:30;;;;;;;118.87;33.73;;;2.80;99.90;;;;;;4157805;28;20360;-41
2020/12/19 04:13:31;;;;;;;110.97;35.23;;;2.80;99.90;;;;;;4126972;28;20276;-46
2020/12/19 04:15:32;;;;;;;110.67;35.17;;;2.80;99.90;;;;;;4141253;28;20336;-41
2020/12/19 04:17:33;;;;;;;108.27;33.17;;;2.80;99.90;;;;;;4142016;28;20337;-52
2020/12/19 04:19:37;;;;;;;100.63;32.03;;;2.80;99.90;;;;;;4142164;28;20330;-48
2020/12/19 04:21:39;;;;;;;123.07;34.23;;;2.80;99.90;;;;;;4139926;28;20299;-52
2020/12/19 04:23:40;;;;;;;101.23;32.03;;;2.80;99.90;;;;;;4148220;28;20356;-45
2020/12/19 04:25:41;;;;;;;110.03;31.90;;;2.80;99.90;;;;;;4139401;28;20341;-43
2020/12/19 04:27:42;;;;;;;104.53;33.27;;;2.80;99.90;;;;;;4157332;28;20464;-44
2020/12/19 04:29:43;;;;;;;106.23;32.60;;;2.80;99.90;;;;;;4142966;28;20305;-41
2020/12/19 04:31:45;;;;;;;105.83;35.33;;;2.80;99.90;;;;;;4141694;28;20357;-44
2020/12/19 04:33:46;;;;;;;113.00;34.43;;;2.80;99.90;;;;;;4140226;28;20280;-48
2020/12/19 04:35:47;;;;;;;102.40;33.40;;;2.70;99.90;;;;;;4141443;28;20271;-45
2020/12/19 04:37:48;;;;;;;99.20;32.93;;;2.70;99.90;;;;;;4139848;28;20279;-44
2020/12/19 04:39:49;;;;;;;97.23;31.60;;;2.70;99.90;;;;;;4141825;28;20260;-49
2020/12/19 04:41:50;;;;;;;110.30;33.00;;;2.70;99.90;;;;;;4140517;28;20314;-42
2020/12/19 04:43:53;;;;;;;111.23;33.40;;;2.80;99.90;;;;;;4140515;28;20275;-44
2020/12/19 04:45:55;;;;;;;96.67;31.63;;;2.80;99.90;;;;;;4140822;28;20260;-39
2020/12/19 04:47:57;;;;;;;98.93;32.47;;;2.80;99.90;;;;;;4149385;28;20275;-42
2020/12/19 04:49:59;;;;;;;113.47;36.47;;;2.80;99.90;;;;;;4156482;28;20832;-47
2020/12/19 04:52:01;;;;;;;109.50;34.63;;;2.70;99.90;;;;;;4157024;28;20302;-42
2020/12/19 04:54:07;;;;;;;104.70;33.77;;;2.70;99.90;;;;;;4144527;28;20287;-40
2020/12/19 04:56:12;;;;;;;108.80;32.93;;;2.70;99.90;;;;;;4139906;28;20275;-41
2020/12/19 04:58:21;;;;;;;112.40;32.60;;;2.80;99.90;;;;;;4140689;28;20292;-48
2020/12/19 05:00:22;;;;;;;96.27;31.20;;;2.80;99.90;;;;;;4140841;28;20322;-46
2020/12/19 05:02:23;;;;;;;104.57;33.57;;;2.80;99.90;;;;;;4157110;28;20340;-49
2020/12/19 05:04:24;;;;;;;107.30;33.03;;;2.70;99.90;;;;;;4156686;28;20275;-41
2020/12/19 05:06:29;;;;;;;108.50;31.97;;;2.80;99.90;;;;;;4157132;28;20270;-42
2020/12/19 05:08:30;;;;;;;102.87;33.17;;;2.70;99.90;;;;;;4150531;28;20275;-42
2020/12/19 05:10:31;;;;;;;100.03;30.57;;;2.70;99.90;;;;;;4153317;28;20327;-49
2020/12/19 05:12:34;;;;;;;100.13;32.83;;;2.80;99.90;;;;;;4147030;28;21319;-42
2020/12/19 05:14:36;;;;;;;116.77;32.40;;;2.80;99.90;;;;;;4157607;28;20340;-48
2020/12/19 05:16:37;;;;;;;105.67;30.83;;;2.80;99.90;;;;;;4155118;28;20798;-51
2020/12/19 05:18:40;;;;;;;103.07;30.50;;;2.80;99.90;;;;;;4157058;28;20283;-48
2020/12/19 05:20:41;;;;;;;102.57;32.53;;;2.70;99.90;;;;;;4155964;28;20275;-44
2020/12/19 05:22:42;;;;;;;98.00;32.13;;;2.70;99.90;;;;;;4156590;28;20271;-43
2020/12/19 05:24:44;;;;;;;96.77;31.30;;;2.80;99.90;;;;;;4141479;28;20264;-44
2020/12/19 05:26:45;;;;;;;93.83;31.27;;;2.70;99.90;;;;;;4139234;28;20830;-44
2020/12/19 05:28:46;;;;;;;104.07;32.10;;;2.70;99.90;;;;;;4147705;28;20313;-42
2020/12/19 05:30:49;;;;;;;103.33;31.47;;;2.70;99.90;;;;;;4155901;28;20832;-44
2020/12/19 05:32:52;;;;;;;91.37;30.20;;;2.70;99.90;;;;;;4156883;28;20357;-41
2020/12/19 05:34:53;;;;;;;91.73;32.73;;;2.70;99.90;;;;;;4156032;28;20313;-44
2020/12/19 05:36:55;;;;;;;94.37;31.33;;;2.70;99.90;;;;;;4156559;28;20321;-40
2020/12/19 05:39:06;;;;;;;90.77;30.93;;;2.80;99.90;;;;;;4155673;28;20321;-40
2020/12/19 05:41:10;;;;;;;80.35;28.80;;;2.80;99.90;;;;;;4155140;28;20270;-46
2020/12/19 05:43:11;;;;;;;89.80;31.30;;;2.70;99.90;;;;;;4138497;28;20081;-44
2020/12/19 05:45:15;;;;;;;84.03;31.67;;;2.80;99.90;;;;;;4139895;28;20678;-54
2020/12/19 05:47:16;;;;;;;85.10;29.83;;;2.80;99.90;;;;;;4139456;28;20291;-43
2020/12/19 05:49:17;;;;;;;94.67;27.97;;;2.80;99.90;;;;;;4140577;28;20283;-45
2020/12/19 05:51:19;;;;;;;76.57;29.17;;;2.80;99.90;;;;;;4139375;28;20841;-41
2020/12/19 05:53:22;;;;;;;73.20;29.17;;;2.80;99.90;;;;;;4148820;28;20292;-41
2020/12/19 05:55:25;;;;;;;84.77;28.83;;;2.80;99.90;;;;;;4155156;28;20283;-44
2020/12/19 05:57:28;;;;;;;85.00;29.70;;;2.80;99.90;;;;;;4155738;28;20287;-49
2020/12/19 05:59:30;;;;;;;86.70;30.33;;;2.80;99.90;;;;;;4142060;28;20330;-44
2020/12/19 06:01:32;;;;;;;80.20;28.27;;;2.80;99.90;;;;;;4151060;28;20852;-56
2020/12/19 06:03:37;;;;;;;81.33;29.77;;;2.80;99.90;;;;;;4154732;28;20275;-49
2020/12/19 06:05:38;;;;;;;81.70;29.87;;;2.80;99.90;;;;;;4145966;28;20646;-49
2020/12/19 06:07:44;;;;;;;83.03;30.03;;;2.90;99.90;;;;;;4139752;28;20267;-51
2020/12/19 06:09:45;;;;;;;71.93;27.20;;;2.90;99.90;;;;;;4138531;28;20271;-43
2020/12/19 06:11:54;;;;;;;78.20;28.37;;;2.80;99.90;;;;;;4155243;28;20755;-44
2020/12/19 06:13:58;;;;;;;71.03;25.53;;;2.90;99.90;;;;;;4151028;28;20287;-45
2020/12/19 06:16:11;;;;;;;87.97;29.77;;;2.80;99.90;;;;;;4139750;28;20670;-44
2020/12/19 06:18:26;;;;;;;80.93;26.63;;;2.90;99.90;;;;;;4144487;28;20714;-49
2020/12/19 06:20:29;;;;;;;80.43;28.30;;;2.90;99.90;;;;;;4156210;28;20313;-40
2020/12/19 06:22:31;;;;;;;78.33;27.93;;;2.80;99.90;;;;;;4140444;28;20275;-47
2020/12/19 06:24:40;;;;;;;79.10;27.60;;;2.80;99.90;;;;;;4139469;28;20275;-42
2020/12/19 06:26:42;;;;;;;68.07;25.87;;;2.80;99.90;;;;;;4152153;28;20770;-56
2020/12/19 06:28:43;;;;;;;69.57;27.33;;;2.90;99.90;;;;;;4156210;28;20919;-47
2020/12/19 06:30:44;;;;;;;75.90;27.47;;;2.90;99.90;;;;;;4154127;28;20401;-43
2020/12/19 06:32:45;;;;;;;71.03;27.30;;;2.90;99.90;;;;;;4139358;28;20436;-53
2020/12/19 06:35:10;;;;;;;76.27;27.07;;;2.80;99.90;;;;;;4138656;28;20271;-43
2020/12/19 06:37:19;;;;;;;63.90;25.50;;;2.80;99.90;;;;;;4140632;28;20283;-42
2020/12/19 06:39:20;;;;;;;70.77;26.57;;;2.90;99.90;;;;;;4152577;28;21163;-53
2020/12/19 06:41:44;;;;;;;64.90;25.87;;;2.80;99.90;;;;;;4155457;28;20321;-42
2020/12/19 06:44:05;;;;;;;63.73;23.63;;;2.90;99.90;;;;;;4149023;28;20335;-51
2020/12/19 06:46:30;;;;;;;60.67;25.40;;;2.90;99.90;;;;;;4139188;28;20325;-41
2020/12/19 06:48:34;;;;;;;60.30;24.87;;;2.90;99.90;;;;;;4147565;28;20275;-47
2020/12/19 06:51:04;;;;;;;67.57;26.37;;;2.90;99.90;;;;;;4155835;28;20266;-47
2020/12/19 06:53:15;;;;;;;65.32;27.60;;;2.90;99.90;;;;;;4117317;28;20353;-54
2020/12/19 06:55:22;;;;;;;58.53;24.07;;;2.80;99.90;;;;;;4155576;28;20042;-45
2020/12/19 06:57:23;;;;;;;59.40;23.50;;;2.90;99.90;;;;;;4151067;28;20338;-42
2020/12/19 06:59:25;;;;;;;63.60;25.63;;;2.90;99.90;;;;;;4152257;28;20373;-41
2020/12/19 07:01:28;;;;;;;57.53;23.13;;;2.90;99.90;;;;;;4138622;28;20940;-51
2020/12/19 07:03:40;;;;;;;52.30;23.43;;;2.90;99.90;;;;;;4139606;28;20275;-40
2020/12/19 07:05:41;;;;;;;58.23;23.63;;;2.90;99.90;;;;;;4138399;28;20667;-47
2020/12/19 07:07:42;;;;;;;58.80;24.27;;;2.90;99.90;;;;;;4139041;28;20763;-44
2020/12/19 07:09:57;;;;;;;53.83;21.70;;;2.90;99.90;;;;;;4137871;28;20283;-45
2020/12/19 07:11:59;;;;;;;54.33;22.83;;;2.90;99.90;;;;;;4140747;28;20307;-43
2020/12/19 07:14:01;;;;;;;53.80;21.23;;;2.90;99.90;;;;;;4141174;28;20713;-41
2020/12/19 07:16:02;;;;;;;51.10;22.50;;;2.90;99.90;;;;;;4142200;28;20283;-43
2020/12/19 07:18:03;;;;;;;54.67;22.40;;;2.90;99.90;;;;;;4149316;28;21134;-52
2020/12/19 07:20:04;;;;;;;56.80;23.93;;;2.90;99.90;;;;;;4158966;28;20262;-51
2020/12/19 07:22:05;;;;;;;52.77;22.80;;;2.90;99.90;;;;;;4157148;28;20259;-43
2020/12/19 07:24:06;;;;;;;54.67;22.23;;;2.90;99.90;;;;;;4157231;28;20323;-42
2020/12/19 07:26:07;;;;;;;52.53;23.17;;;3.00;99.90;;;;;;4157612;28;20266;-43
2020/12/19 07:28:09;;;;;;;48.67;20.60;;;3.00;99.90;;;;;;4155581;28;20747;-47
2020/12/19 07:30:10;;;;;;;52.43;22.73;;;3.00;99.90;;;;;;4140239;28;20369;-48
2020/12/19 07:32:11;;;;;;;49.17;21.53;;;2.90;99.90;;;;;;4141043;28;20391;-47
2020/12/19 07:34:12;;;;;;;50.83;21.97;;;3.00;99.90;;;;;;4141149;28;20271;-43
2020/12/19 07:36:15;;;;;;;52.90;22.27;;;2.90;99.90;;;;;;4140928;28;20263;-44
2020/12/19 07:38:20;;;;;;;54.37;22.33;;;2.90;99.90;;;;;;4141292;28;20342;-40
2020/12/19 07:40:23;;;;;;;46.13;19.73;;;3.00;99.90;;;;;;4140811;28;20264;-39
2020/12/19 07:42:24;;;;;;;49.43;22.40;;;3.00;99.90;;;;;;4141695;28;20283;-48
2020/12/19 07:44:25;;;;;;;52.60;22.70;;;3.00;99.90;;;;;;4141999;28;20345;-49
2020/12/19 07:46:26;;;;;;;51.20;22.23;;;3.00;99.90;;;;;;4142189;28;20271;-42
2020/12/19 07:48:27;;;;;;;45.63;21.37;;;3.00;99.90;;;;;;4148032;28;20278;-47
2020/12/19 07:50:30;;;;;;;53.53;22.67;;;3.00;99.90;;;;;;4147921;28;20275;-42
2020/12/19 07:52:31;;;;;;;46.00;20.37;;;3.00;99.90;;;;;;4146065;28;20299;-43
2020/12/19 07:54:33;;;;;;;48.67;21.87;;;3.10;99.90;;;;;;4141662;28;20283;-46
2020/12/19 07:56:36;;;;;;;47.53;19.97;;;3.10;99.90;;;;;;4140748;28;20267;-44
2020/12/19 07:58:39;;;;;;;48.73;20.43;;;3.10;99.90;;;;;;4142277;28;20283;-38
2020/12/19 08:00:40;;;;;;;45.63;20.97;;;3.10;99.90;;;;;;4139807;28;20275;-42
2020/12/19 08:02:41;;;;;;;47.73;21.77;;;3.10;99.90;;;;;;4147649;28;20708;-46
2020/12/19 08:04:52;;;;;;;42.70;19.37;;;3.10;99.90;;;;;;4157336;28;20282;-49
2020/12/19 08:06:53;;;;;;;;;;;3.10;99.90;;;;;;4158074;28;20259;-49
2020/12/19 08:08:57;;;;;;;;;;;3.10;99.90;;;;;;4158307;28;19960;-42
2020/12/19 08:11:04;;;;;;;48.33;19.57;;;3.20;99.90;;;;;;4138804;28;19976;-51
2020/12/19 08:13:11;;;;;;;45.53;20.70;;;3.20;99.90;;;;;;4157375;28;20844;-43
2020/12/19 08:15:16;;;;;;;48.53;21.77;;;3.20;99.90;;;;;;4155871;28;20714;-61
2020/12/19 08:17:17;;;;;;;40.43;18.40;;;3.20;99.90;;;;;;4157095;28;20290;-56
2020/12/19 08:19:35;;;;;;;40.27;19.77;;;3.20;99.90;;;;;;4156794;28;20286;-43
2020/12/19 08:21:37;;;;;;;40.90;18.80;;;3.20;99.90;;;;;;4157039;28;20291;-44
2020/12/19 08:23:39;;;;;;;39.23;18.07;;;3.10;99.90;;;;;;4149817;28;20295;-46
2020/12/19 08:25:40;;;;;;;40.40;19.13;;;3.10;99.90;;;;;;4141062;28;20318;-44
2020/12/19 08:27:46;;;;;;;45.47;20.30;;;3.20;99.90;;;;;;4138848;28;20291;-43
2020/12/19 08:30:11;;;;;;;39.23;17.90;;;3.20;99.90;;;;;;4140921;28;20272;-43
2020/12/19 08:32:13;;;;;;;38.27;18.30;;;3.10;99.90;;;;;;4139176;28;20283;-50
2020/12/19 08:34:15;;;;;;;44.40;19.47;;;3.20;99.90;;;;;;4142199;28;20291;-46
2020/12/19 08:36:16;;;;;;;44.40;21.70;;;3.20;99.90;;;;;;4139774;28;20271;-43
2020/12/19 08:38:26;;;;;;;53.20;22.80;;;3.20;99.90;;;;;;4141041;28;20334;-38
2020/12/19 08:40:33;;;;;;;45.90;21.15;;;3.20;99.90;;;;;;4140252;28;20413;-42
2020/12/19 08:42:35;;;;;;;48.43;22.77;;;3.20;99.90;;;;;;4141564;28;20092;-49
2020/12/19 08:44:36;;;;;;;40.83;19.80;;;3.20;99.90;;;;;;4141004;28;20267;-49
2020/12/19 08:46:37;;;;;;;46.73;19.13;;;3.20;99.90;;;;;;4145869;28;20345;-46
2020/12/19 08:48:39;;;;;;;44.00;19.47;;;3.30;99.90;;;;;;4155390;28;20642;-48
2020/12/19 08:50:42;;;;;;;44.70;20.00;;;3.20;99.90;;;;;;4157049;28;20341;-44
2020/12/19 08:52:43;;;;;;;39.97;19.50;;;3.20;99.90;;;;;;4155792;28;20361;-48
2020/12/19 08:54:57;;;;;;;41.20;18.10;;;3.20;99.90;;;;;;4157296;28;20336;-48
2020/12/19 08:56:58;;;;;;;38.77;19.13;;;3.30;99.90;;;;;;4156506;28;20321;-50
2020/12/19 08:59:00;;;;;;;39.93;18.70;;;3.30;99.90;;;;;;4157023;28;20420;-48
2020/12/19 09:01:16;;;;;;;42.57;18.43;;;3.30;99.90;;;;;;4156159;28;20247;-42
2020/12/19 09:03:27;;;;;;;41.57;17.70;;;3.40;99.90;;;;;;4154766;28;20812;-55
2020/12/19 09:05:33;;;;;;;40.03;18.37;;;3.40;99.90;;;;;;4156342;28;20259;-48
2020/12/19 09:07:34;;;;;;;41.27;21.33;;;3.40;99.90;;;;;;4156425;28;20593;-44
2020/12/19 09:09:36;;;;;;;58.80;31.87;;;3.40;99.90;;;;;;4156777;28;20313;-43
2020/12/19 09:11:37;;;;;;;69.97;37.87;;;3.40;99.90;;;;;;4156310;28;20267;-41
2020/12/19 09:13:38;;;;;;;48.40;23.37;;;3.40;99.90;;;;;;4150199;28;20303;-43
2020/12/19 09:15:41;;;;;;;48.83;23.43;;;3.50;99.90;;;;;;4139793;28;20345;-54
2020/12/19 09:17:42;;;;;;;49.17;23.53;;;3.40;99.90;;;;;;4139007;28;20329;-44
2020/12/19 09:19:43;;;;;;;48.03;23.27;;;3.40;99.90;;;;;;4138684;28;21014;-56
2020/12/19 09:21:59;;;;;;;44.70;19.67;;;3.40;99.90;;;;;;4141707;28;20329;-43
2020/12/19 09:24:00;;;;;;;43.10;19.47;;;3.40;99.90;;;;;;4155766;28;20838;-48
2020/12/19 09:26:04;;;;;;;39.47;19.80;;;3.40;99.90;;;;;;4156969;28;20313;-52
2020/12/19 09:28:05;;;;;;;41.47;18.87;;;3.40;99.90;;;;;;4155539;28;20334;-60
2020/12/19 09:30:06;;;;;;;41.27;18.87;;;3.50;99.90;;;;;;4156928;28;20266;-51
2020/12/19 09:32:07;;;;;;;35.40;16.70;;;3.40;99.90;;;;;;4154930;28;20294;-47
2020/12/19 09:34:09;;;;;;;37.00;17.13;;;3.40;99.90;;;;;;4155549;28;20298;-48
2020/12/19 09:36:10;;;;;;;36.77;16.87;;;3.40;99.90;;;;;;4155442;28;20336;-42
2020/12/19 09:38:11;;;;;;;34.33;17.03;;;3.40;99.90;;;;;;4156994;28;20332;-42
2020/12/19 09:40:12;;;;;;;38.03;17.77;;;3.40;99.90;;;;;;4155906;28;20754;-41
2020/12/19 09:42:13;;;;;;;36.40;16.33;;;3.30;99.90;;;;;;4154719;28;20279;-50
2020/12/19 09:44:16;;;;;;;35.80;16.80;;;3.30;99.90;;;;;;4155439;28;20321;-45
2020/12/19 09:46:17;;;;;;;46.10;19.73;;;3.30;99.90;;;;;;4155872;28;20262;-60
2020/12/19 09:48:19;;;;;;;36.50;17.60;;;3.30;99.90;;;;;;4156008;28;20349;-58
2020/12/19 09:50:21;;;;;;;39.00;17.37;;;3.30;99.90;;;;;;4154114;28;20694;-51
2020/12/19 09:52:22;;;;;;;40.00;16.60;;;3.40;99.90;;;;;;4156408;28;20593;-47
2020/12/19 09:54:23;;;;;;;33.20;14.83;;;3.30;99.90;;;;;;4137968;28;20338;-46
2020/12/19 09:56:24;;;;;;;31.53;15.70;;;3.30;99.90;;;;;;4155725;28;20674;-45
2020/12/19 09:58:25;;;;;;;30.93;16.87;;;3.30;99.90;;;;;;4155225;28;20263;-42
2020/12/19 10:00:27;;;;;;;40.83;19.13;;;3.30;99.90;;;;;;4156546;28;20824;-46
2020/12/19 10:02:28;;;;;;;35.33;16.97;;;3.40;99.90;;;;;;4140361;28;20279;-43
2020/12/19 10:04:29;;;;;;;45.57;18.53;;;3.40;99.90;;;;;;4137677;28;20793;-50
2020/12/19 10:06:30;;;;;;;39.07;17.77;;;3.40;99.90;;;;;;4137641;28;20267;-45
2020/12/19 10:08:31;;;;;;;38.80;17.73;;;3.40;99.90;;;;;;4139485;28;20338;-50
2020/12/19 10:10:34;;;;;;;38.70;19.27;;;3.40;99.90;;;;;;4121179;28;20346;-48
2020/12/19 10:12:35;;;;;;;36.23;16.93;;;3.40;99.90;;;;;;4142159;28;20283;-56
2020/12/19 10:14:36;;;;;;;40.27;18.43;;;3.40;99.90;;;;;;4149032;28;20666;-45
2020/12/19 10:16:38;;;;;;;37.20;18.40;;;3.40;99.90;;;;;;4139386;28;20327;-43
2020/12/19 10:18:39;;;;;;;42.33;20.70;;;3.40;99.90;;;;;;4139771;28;20271;-45
2020/12/19 10:20:40;;;;;;;44.43;20.90;;;3.40;99.90;;;;;;4139259;28;20826;-49
2020/12/19 10:22:41;;;;;;;42.70;22.37;;;3.40;99.90;;;;;;4138673;28;20317;-45
2020/12/19 10:24:42;;;;;;;45.77;22.47;;;3.40;99.90;;;;;;4138949;28;20383;-44
2020/12/19 10:26:49;;;;;;;45.77;23.93;;;3.40;99.90;;;;;;4139248;28;20759;-51
2020/12/19 10:28:50;;;;;;;42.13;21.53;;;3.40;99.90;;;;;;4133499;28;20263;-44